createdAt,value
2019-02-21T00:00:10.362Z,14.70
2019-02-21T00:02:38.862Z,14.27
2019-02-21T00:05:07.218Z,13.53
2019-02-21T00:07:36.003Z,13.47
2019-02-21T00:10:04.781Z,14.37
2019-02-21T00:12:33.502Z,15.15
2019-02-21T00:15:01.843Z,12.40
2019-02-21T00:17:29.993Z,14.57
2019-02-21T00:19:58.770Z,14.30
2019-02-21T00:22:26.901Z,15.50
2019-02-21T00:24:55.613Z,14.67
2019-02-21T00:27:24.777Z,15.70
2019-02-21T00:29:53.489Z,14.53
2019-02-21T00:32:21.407Z,15.43
2019-02-21T00:34:50.031Z,15.53
2019-02-21T00:37:18.619Z,17.83
2019-02-21T00:39:47.051Z,15.10
2019-02-21T00:42:16.029Z,14.30
2019-02-21T00:44:44.417Z,16.07
2019-02-21T00:47:13.477Z,14.40
2019-02-21T00:49:41.393Z,16.42
2019-02-21T00:52:10.629Z,15.87
2019-02-21T00:54:38.601Z,15.23
2019-02-21T00:57:06.756Z,15.75
2019-02-21T00:59:34.657Z,15.98
2019-02-21T01:02:02.673Z,18.05
2019-02-21T01:04:30.597Z,16.67
2019-02-21T01:06:58.606Z,14.68
2019-02-21T01:09:32.819Z,15.60
2019-02-21T01:12:00.913Z,14.87
2019-02-21T01:14:28.806Z,14.73
2019-02-21T01:16:56.814Z,15.93
2019-02-21T01:19:29.257Z,15.70
2019-02-21T01:21:57.338Z,15.43
2019-02-21T01:24:25.334Z,16.23
2019-02-21T01:26:53.250Z,16.62
2019-02-21T01:29:21.347Z,15.98
2019-02-21T01:31:49.339Z,14.20
2019-02-21T01:34:17.229Z,15.75
2019-02-21T01:36:45.241Z,15.35
2019-02-21T01:39:13.318Z,16.05
2019-02-21T01:41:41.482Z,16.42
2019-02-21T01:44:09.434Z,16.07
2019-02-21T01:46:37.349Z,17.35
2019-02-21T01:49:05.718Z,17.23
2019-02-21T01:51:34.113Z,16.65
2019-02-21T01:54:02.654Z,16.93
2019-02-21T01:56:31.594Z,16.80
2019-02-21T01:59:00.381Z,15.55
2019-02-21T02:01:28.897Z,17.32
2019-02-21T02:03:57.409Z,16.48
2019-02-21T02:06:26.162Z,16.17
2019-02-21T02:08:55.170Z,17.75
2019-02-21T02:11:23.720Z,16.95
2019-02-21T02:13:52.373Z,16.42
2019-02-21T02:16:21.005Z,19.12
2019-02-21T02:18:49.425Z,17.70
2019-02-21T02:21:17.881Z,18.75
2019-02-21T02:23:46.050Z,18.50
2019-02-21T02:26:14.431Z,17.05
2019-02-21T02:28:42.675Z,18.48
2019-02-21T02:31:22.083Z,18.15
2019-02-21T02:33:41.786Z,19.10
2019-02-21T02:36:13.130Z,18.23
2019-02-21T02:38:41.800Z,17.77
2019-02-21T02:41:10.578Z,20.52
2019-02-21T02:43:40.158Z,20.37
2019-02-21T02:46:08.158Z,19.50
2019-02-21T02:48:36.411Z,18.75
2019-02-21T02:51:04.742Z,19.30
2019-02-21T02:53:32.969Z,20.23
2019-02-21T02:56:00.998Z,19.30
2019-02-21T02:58:28.977Z,18.70
2019-02-21T03:00:57.106Z,17.80
2019-02-21T03:03:25.225Z,19.42
2019-02-21T03:05:53.302Z,20.85
2019-02-21T03:08:21.403Z,19.50
2019-02-21T03:10:49.380Z,18.73
2019-02-21T03:13:17.450Z,19.23
2019-02-21T03:15:45.407Z,21.27
2019-02-21T03:18:13.342Z,20.65
2019-02-21T03:20:41.330Z,21.10
2019-02-21T03:23:09.321Z,20.30
2019-02-21T03:25:37.297Z,18.95
2019-02-21T03:28:05.229Z,19.32
2019-02-21T03:30:33.438Z,19.55
2019-02-21T03:33:01.748Z,20.32
2019-02-21T03:35:30.597Z,22.13
2019-02-21T03:37:58.766Z,19.75
2019-02-21T03:40:26.903Z,20.97
2019-02-21T03:42:54.952Z,18.80
2019-02-21T03:45:23.433Z,19.37
2019-02-21T03:47:51.617Z,20.20
2019-02-21T03:50:19.562Z,18.45
2019-02-21T03:52:48.023Z,18.90
2019-02-21T03:55:16.114Z,17.98
2019-02-21T03:57:44.140Z,18.83
2019-02-21T04:00:12.292Z,17.65
2019-02-21T04:02:40.445Z,17.70
2019-02-21T04:05:08.815Z,17.40
2019-02-21T04:07:36.849Z,18.37
2019-02-21T04:10:05.044Z,17.90
2019-02-21T04:12:33.986Z,17.60
2019-02-21T04:15:02.416Z,17.02
2019-02-21T04:17:30.501Z,18.62
2019-02-21T04:19:58.679Z,18.60
2019-02-21T04:22:27.105Z,18.60
2019-02-21T04:24:55.494Z,19.15
2019-02-21T04:27:23.709Z,18.45
2019-02-21T04:29:52.037Z,17.77
2019-02-21T04:32:20.125Z,18.95
2019-02-21T04:34:48.114Z,18.10
2019-02-21T04:37:16.267Z,18.10
2019-02-21T04:39:46.973Z,18.23
2019-02-21T04:42:15.934Z,17.95
2019-02-21T04:44:44.123Z,18.62
2019-02-21T04:47:12.417Z,16.97
2019-02-21T04:49:40.354Z,19.27
2019-02-21T04:52:08.632Z,17.98
2019-02-21T04:54:36.868Z,17.55
2019-02-21T04:57:05.082Z,18.85
2019-02-21T04:59:33.210Z,19.23
2019-02-21T05:02:01.267Z,18.92
2019-02-21T05:04:29.321Z,19.60
2019-02-21T05:06:57.460Z,20.02
2019-02-21T05:09:27.200Z,20.03
2019-02-21T05:11:55.445Z,19.00
2019-02-21T05:14:27.300Z,20.10
2019-02-21T05:16:55.677Z,20.88
2019-02-21T05:19:24.122Z,18.98
2019-02-21T05:21:52.188Z,19.30
2019-02-21T05:24:22.139Z,19.42
2019-02-21T05:26:57.439Z,20.57
2019-02-21T05:29:25.457Z,19.40
2019-02-21T05:32:16.425Z,20.65
2019-02-21T05:34:49.790Z,19.85
2019-02-21T05:37:29.727Z,20.55
2019-02-21T05:40:15.003Z,21.30
2019-02-21T05:43:11.842Z,19.67
2019-02-21T05:45:51.670Z,19.77
2019-02-21T05:48:40.525Z,21.25
2019-02-21T05:51:36.697Z,20.30
2019-02-21T05:54:12.830Z,19.95
2019-02-21T05:56:58.368Z,20.73
2019-02-21T05:59:57.085Z,20.55
2019-02-21T06:02:58.800Z,21.20
2019-02-21T06:05:40.389Z,21.90
2019-02-21T06:08:32.572Z,21.82
2019-02-21T06:11:19.150Z,24.05
2019-02-21T06:14:21.351Z,21.23
2019-02-21T06:16:58.566Z,22.02
2019-02-21T06:19:43.997Z,21.85
2019-02-21T06:22:23.861Z,22.20
2019-02-21T06:24:59.582Z,22.02
2019-02-21T06:27:38.146Z,21.05
2019-02-21T06:30:10.990Z,22.77
2019-02-21T06:32:40.754Z,24.77
2019-02-21T06:35:10.986Z,22.87
2019-02-21T06:37:39.255Z,22.25
2019-02-21T06:40:08.074Z,24.52
2019-02-21T06:42:38.735Z,23.92
2019-02-21T06:45:07.496Z,22.27
2019-02-21T06:47:36.052Z,22.22
2019-02-21T06:50:04.499Z,23.80
2019-02-21T06:52:32.769Z,25.08
2019-02-21T06:55:02.263Z,24.05
2019-02-21T06:57:32.547Z,25.55
2019-02-21T07:00:01.939Z,25.10
2019-02-21T07:02:30.113Z,24.45
2019-02-21T07:05:01.128Z,23.47
2019-02-21T07:07:29.309Z,25.60
2019-02-21T07:09:58.030Z,24.95
2019-02-21T07:12:26.354Z,24.92
2019-02-21T07:14:54.910Z,25.27
2019-02-21T07:17:23.422Z,24.92
2019-02-21T07:19:51.645Z,24.10
2019-02-21T07:22:23.102Z,24.72
2019-02-21T07:24:55.505Z,24.72
2019-02-21T07:27:22.537Z,23.57
2019-02-21T07:29:51.974Z,23.40
2019-02-21T07:32:20.661Z,26.20
2019-02-21T07:34:49.034Z,24.10
2019-02-21T07:37:18.951Z,25.30
2019-02-21T07:39:47.111Z,26.60
2019-02-21T07:42:16.357Z,25.50
2019-02-21T07:44:45.488Z,26.50
2019-02-21T07:47:14.002Z,25.80
2019-02-21T07:49:42.189Z,26.40
2019-02-21T07:52:10.502Z,28.80
2019-02-21T07:54:39.165Z,26.47
2019-02-21T07:57:08.611Z,25.87
2019-02-21T07:59:37.488Z,25.27
2019-02-21T08:02:05.873Z,27.10
2019-02-21T08:04:36.913Z,25.27
2019-02-21T08:07:04.855Z,25.30
2019-02-21T08:09:33.539Z,25.57
2019-02-21T08:12:04.526Z,25.90
2019-02-21T08:14:34.176Z,25.43
2019-02-21T08:17:02.239Z,26.20
2019-02-21T08:19:32.982Z,25.77
2019-02-21T08:22:01.282Z,24.60
2019-02-21T08:24:29.770Z,25.90
2019-02-21T08:26:58.594Z,28.07
2019-02-21T08:29:26.933Z,26.70
2019-02-21T08:31:55.380Z,27.53
2019-02-21T08:34:27.939Z,27.50
2019-02-21T08:36:56.134Z,26.30
2019-02-21T08:39:24.298Z,26.33
2019-02-21T08:41:55.171Z,26.10
2019-02-21T08:44:23.598Z,25.97
2019-02-21T08:46:57.120Z,26.10
2019-02-21T08:49:27.428Z,26.07
2019-02-21T08:51:56.240Z,25.83
2019-02-21T08:54:24.826Z,25.47
2019-02-21T08:56:53.245Z,26.07
2019-02-21T08:59:21.527Z,25.93
2019-02-21T09:01:49.466Z,25.47
2019-02-21T09:04:26.826Z,27.00
2019-02-21T09:06:48.106Z,26.10
2019-02-21T09:09:15.488Z,25.13
2019-02-21T09:11:43.588Z,26.60
2019-02-21T09:14:11.993Z,27.33
2019-02-21T09:16:40.290Z,25.47
2019-02-21T09:19:08.435Z,23.43
2019-02-21T09:21:38.411Z,27.20
2019-02-21T09:24:37.571Z,26.20
2019-02-21T09:26:50.211Z,25.90
2019-02-21T09:29:21.297Z,27.10
2019-02-21T09:31:48.437Z,26.07
2019-02-21T09:34:21.197Z,26.20
2019-02-21T09:36:44.471Z,26.67
2019-02-21T09:39:11.539Z,27.33
2019-02-21T09:41:38.758Z,26.63
2019-02-21T09:44:08.045Z,29.00
2019-02-21T09:46:35.797Z,28.43
2019-02-21T09:49:03.360Z,27.17
2019-02-21T09:51:32.763Z,27.90
2019-02-21T09:54:00.786Z,27.67
2019-02-21T09:56:30.751Z,27.00
2019-02-21T09:59:02.138Z,26.60
2019-02-21T10:01:30.695Z,28.30
2019-02-21T10:03:59.041Z,28.07
2019-02-21T10:06:27.461Z,27.07
2019-02-21T10:09:02.334Z,30.10
2019-02-21T10:11:29.914Z,27.60
2019-02-21T10:13:58.077Z,28.60
2019-02-21T10:16:26.597Z,27.37
2019-02-21T10:18:55.385Z,30.10
2019-02-21T10:21:25.157Z,29.40
2019-02-21T10:23:53.462Z,28.30
2019-02-21T10:26:21.645Z,29.40
2019-02-21T10:28:50.097Z,31.90
2019-02-21T10:31:18.894Z,29.47
2019-02-21T10:33:50.448Z,29.67
2019-02-21T10:36:18.797Z,30.63
2019-02-21T10:38:47.224Z,30.53
2019-02-21T10:41:15.960Z,27.30
2019-02-21T10:43:44.205Z,28.00
2019-02-21T10:46:15.946Z,28.53
2019-02-21T10:48:43.977Z,27.83
2019-02-21T10:51:12.397Z,28.70
2019-02-21T10:53:40.405Z,26.03
2019-02-21T10:56:08.801Z,26.97
2019-02-21T10:58:42.277Z,26.33
2019-02-21T11:01:10.657Z,26.47
2019-02-21T11:03:39.329Z,26.80
2019-02-21T11:06:08.022Z,27.10
2019-02-21T11:08:35.446Z,26.00
2019-02-21T11:11:05.269Z,28.50
2019-02-21T11:13:33.713Z,27.33
2019-02-21T11:16:01.842Z,26.67
2019-02-21T11:18:29.985Z,25.97
2019-02-21T11:20:59.374Z,24.83
2019-02-21T11:23:30.715Z,25.30
2019-02-21T11:25:59.083Z,25.57
2019-02-21T11:28:27.230Z,23.90
2019-02-21T11:30:55.369Z,25.70
2019-02-21T11:33:23.596Z,23.43
2019-02-21T11:35:55.681Z,22.17
2019-02-21T11:38:24.550Z,22.40
2019-02-21T11:40:52.582Z,22.17
2019-02-21T11:43:20.642Z,21.90
2019-02-21T11:45:55.128Z,20.40
2019-02-21T11:48:19.848Z,21.80
2019-02-21T11:50:47.965Z,19.67
2019-02-21T11:53:16.200Z,20.27
2019-02-21T11:55:44.125Z,19.73
2019-02-21T11:58:12.184Z,20.53
2019-02-21T12:00:40.314Z,19.10
2019-02-21T12:03:12.189Z,20.20
2019-02-21T12:05:40.398Z,21.20
2019-02-21T12:08:08.827Z,22.23
2019-02-21T12:10:36.745Z,21.47
2019-02-21T12:13:04.889Z,21.47
2019-02-21T12:15:35.994Z,22.63
2019-02-21T12:18:04.137Z,20.20
2019-02-21T12:20:32.149Z,19.70
2019-02-21T12:23:00.300Z,18.40
2019-02-21T12:25:28.405Z,16.40
2019-02-21T12:28:00.058Z,15.67
2019-02-21T12:30:28.391Z,16.60
2019-02-21T12:32:56.454Z,15.90
2019-02-21T12:35:29.758Z,15.70
2019-02-21T12:37:54.713Z,16.50
2019-02-21T12:40:27.035Z,16.60
2019-02-21T12:42:55.126Z,18.80
2019-02-21T12:45:23.169Z,18.07
2019-02-21T12:47:53.732Z,18.90
2019-02-21T12:50:21.432Z,15.60
2019-02-21T12:52:50.922Z,18.40
2019-02-21T12:55:27.958Z,17.47
2019-02-21T12:57:49.138Z,17.00
2019-02-21T13:00:17.535Z,15.20
2019-02-21T13:02:45.717Z,15.60
2019-02-21T13:05:16.002Z,16.40
2019-02-21T13:07:44.017Z,17.07
2019-02-21T13:10:13.389Z,16.60
2019-02-21T13:12:41.424Z,17.87
2019-02-21T13:15:10.578Z,17.90
2019-02-21T13:17:41.685Z,16.50
2019-02-21T13:20:09.981Z,16.07
2019-02-21T13:22:37.102Z,14.90
2019-02-21T13:25:05.765Z,16.87
2019-02-21T13:27:33.877Z,15.13
2019-02-21T13:30:03.786Z,13.90
2019-02-21T13:32:31.829Z,12.53
2019-02-21T13:34:59.781Z,12.50
2019-02-21T13:37:28.997Z,11.13
2019-02-21T13:39:57.377Z,11.33
2019-02-21T13:42:29.593Z,10.20
2019-02-21T13:44:57.768Z,11.20
2019-02-21T13:47:25.788Z,11.50
2019-02-21T13:49:53.806Z,11.30
2019-02-21T13:52:22.213Z,12.27
2019-02-21T13:54:55.206Z,14.87
2019-02-21T13:57:23.227Z,13.83
2019-02-21T13:59:51.169Z,14.07
2019-02-21T14:02:19.247Z,13.77
2019-02-21T14:04:47.290Z,14.73
2019-02-21T14:07:20.249Z,14.33
2019-02-21T14:09:47.488Z,13.87
2019-02-21T14:12:15.719Z,12.70
2019-02-21T14:14:43.741Z,13.03
2019-02-21T14:17:14.918Z,13.83
2019-02-21T14:19:43.258Z,15.00
2019-02-21T14:22:11.173Z,14.60
2019-02-21T14:24:39.565Z,15.23
2019-02-21T14:27:08.818Z,16.70
2019-02-21T14:29:39.531Z,18.03
2019-02-21T14:32:08.504Z,16.40
2019-02-21T14:34:36.769Z,16.40
2019-02-21T14:37:05.034Z,15.80
2019-02-21T14:39:33.909Z,14.83
2019-02-21T14:42:04.363Z,16.23
2019-02-21T14:44:32.342Z,13.90
2019-02-21T14:47:00.523Z,12.70
2019-02-21T14:49:28.436Z,10.00
2019-02-21T14:51:57.196Z,10.63
2019-02-21T14:54:25.881Z,9.67
2019-02-21T14:56:54.042Z,9.87
2019-02-21T14:59:22.287Z,9.87
2019-02-21T15:01:50.453Z,11.30
2019-02-21T15:04:18.831Z,10.47
2019-02-21T15:06:47.349Z,12.77
2019-02-21T15:09:15.795Z,12.63
2019-02-21T15:11:44.431Z,12.57
2019-02-21T15:14:12.842Z,13.07
2019-02-21T15:16:40.999Z,12.17
2019-02-21T15:19:09.477Z,11.50
2019-02-21T15:21:37.649Z,11.30
2019-02-21T15:24:06.605Z,11.37
2019-02-21T15:26:35.175Z,11.23
2019-02-21T15:29:04.281Z,10.20
2019-02-21T15:31:32.661Z,10.80
2019-02-21T15:34:04.464Z,10.93
2019-02-21T15:36:38.262Z,12.00
2019-02-21T15:39:04.640Z,12.43
2019-02-21T15:41:33.490Z,13.20
2019-02-21T15:44:05.982Z,12.37
2019-02-21T15:46:34.126Z,12.73
2019-02-21T15:49:02.845Z,12.37
2019-02-21T15:51:31.337Z,13.53
2019-02-21T15:53:59.513Z,14.70
2019-02-21T15:56:30.249Z,14.67
2019-02-21T15:58:58.412Z,13.90
2019-02-21T16:01:26.621Z,14.90
2019-02-21T16:03:55.235Z,14.27
2019-02-21T16:06:23.601Z,13.93
2019-02-21T16:08:52.417Z,14.17
2019-02-21T16:11:20.979Z,13.60
2019-02-21T16:14:02.037Z,15.37
2019-02-21T16:16:21.224Z,15.17
2019-02-21T16:18:50.329Z,14.60
2019-02-21T16:21:18.943Z,15.23
2019-02-21T16:23:47.102Z,16.60
2019-02-21T16:26:15.262Z,14.80
2019-02-21T16:28:43.681Z,15.07
2019-02-21T16:31:11.809Z,15.80
2019-02-21T16:33:40.542Z,15.90
2019-02-21T16:36:09.296Z,17.30
2019-02-21T16:38:37.873Z,17.23
2019-02-21T16:41:05.950Z,17.37
2019-02-21T16:43:34.508Z,16.10
2019-02-21T16:46:07.891Z,15.73
2019-02-21T16:48:33.022Z,16.97
2019-02-21T16:51:01.425Z,15.60
2019-02-21T16:53:29.445Z,16.63
2019-02-21T16:55:57.616Z,16.47
2019-02-21T16:58:25.728Z,16.77
2019-02-21T17:00:56.775Z,17.27
2019-02-21T17:03:24.958Z,16.33
2019-02-21T17:05:53.357Z,16.43
2019-02-21T17:08:22.173Z,18.10
2019-02-21T17:10:50.078Z,18.77
2019-02-21T17:13:18.577Z,17.40
2019-02-21T17:15:47.141Z,18.90
2019-02-21T17:18:15.379Z,16.73
2019-02-21T17:20:43.493Z,17.47
2019-02-21T17:23:22.275Z,19.60
2019-02-21T17:25:41.578Z,20.00
2019-02-21T17:28:09.707Z,19.60
2019-02-21T17:30:37.629Z,21.30
2019-02-21T17:33:06.059Z,21.20
2019-02-21T17:35:33.981Z,20.77
2019-02-21T17:38:02.022Z,20.10
2019-02-21T17:40:30.115Z,21.33
2019-02-21T17:42:58.135Z,17.90
2019-02-21T17:45:26.222Z,22.40
2019-02-21T17:47:54.233Z,22.50
2019-02-21T17:50:22.289Z,23.63
2019-02-21T17:52:50.372Z,22.27
2019-02-21T17:55:18.517Z,23.00
2019-02-21T17:57:46.919Z,20.20
2019-02-21T18:00:18.649Z,23.30
2019-02-21T18:02:46.576Z,21.73
2019-02-21T18:05:14.646Z,22.50
2019-02-21T18:07:42.564Z,22.50
2019-02-21T18:10:11.589Z,23.10
2019-02-21T18:12:39.737Z,22.57
2019-02-21T18:15:08.354Z,23.67
2019-02-21T18:17:36.384Z,24.20
2019-02-21T18:20:04.990Z,22.27
2019-02-21T18:22:32.966Z,21.70
2019-02-21T18:25:01.002Z,21.87
2019-02-21T18:27:29.697Z,21.50
2019-02-21T18:29:58.522Z,22.20
2019-02-21T18:32:26.453Z,20.93
2019-02-21T18:34:54.523Z,21.73
2019-02-21T18:37:22.631Z,23.60
2019-02-21T18:39:50.763Z,21.23
2019-02-21T18:42:18.954Z,22.87
2019-02-21T18:44:47.174Z,22.20
2019-02-21T18:47:15.208Z,20.03
2019-02-21T18:49:43.345Z,22.13
2019-02-21T18:52:12.283Z,22.73
2019-02-21T18:54:40.465Z,21.80
2019-02-21T18:57:08.650Z,24.20
2019-02-21T18:59:36.676Z,28.90
2019-02-21T19:02:07.363Z,31.90
2019-02-21T19:04:35.475Z,36.93
2019-02-21T19:07:03.625Z,34.43
2019-02-21T19:09:35.027Z,29.93
2019-02-21T19:12:03.229Z,30.23
2019-02-21T19:14:31.287Z,28.80
2019-02-21T19:16:59.431Z,27.37
2019-02-21T19:19:27.580Z,30.93
2019-02-21T19:21:58.002Z,35.23
2019-02-21T19:24:26.230Z,32.77
2019-02-21T19:26:54.435Z,35.53
2019-02-21T19:29:22.556Z,36.60
2019-02-21T19:31:50.770Z,37.43
2019-02-21T19:34:22.014Z,38.87
2019-02-21T19:36:50.070Z,38.97
2019-02-21T19:39:18.182Z,38.50
2019-02-21T19:41:46.214Z,38.63
2019-02-21T19:44:14.380Z,39.93
2019-02-21T19:46:45.469Z,37.90
2019-02-21T19:49:13.489Z,37.07
2019-02-21T19:51:41.439Z,37.93
2019-02-21T19:54:09.701Z,38.07
2019-02-21T19:56:37.830Z,37.90
2019-02-21T19:59:14.152Z,38.00
2019-02-21T20:01:42.249Z,39.40
2019-02-21T20:04:10.373Z,40.27
2019-02-21T20:06:38.401Z,38.93
2019-02-21T20:09:06.640Z,40.50
2019-02-21T20:11:36.798Z,42.47
2019-02-21T20:14:05.161Z,41.60
2019-02-21T20:16:33.521Z,45.20
2019-02-21T20:19:01.541Z,44.93
2019-02-21T20:21:29.586Z,43.70
2019-02-21T20:24:01.331Z,44.57
2019-02-21T20:26:29.389Z,44.20
2019-02-21T20:28:57.509Z,46.00
2019-02-21T20:31:25.462Z,43.43
2019-02-21T20:33:53.888Z,49.27
2019-02-21T20:36:25.009Z,45.90
2019-02-21T20:38:53.550Z,42.27
2019-02-21T20:41:21.593Z,46.17
2019-02-21T20:43:49.785Z,45.87
2019-02-21T20:46:17.989Z,45.13
2019-02-21T20:48:47.466Z,46.40
2019-02-21T20:51:17.360Z,46.00
2019-02-21T20:53:46.264Z,45.10
2019-02-21T20:56:14.338Z,45.27
2019-02-21T20:58:42.932Z,43.77
2019-02-21T21:01:16.133Z,43.60
2019-02-21T21:03:44.295Z,43.37
2019-02-21T21:06:12.595Z,41.03
2019-02-21T21:08:44.268Z,38.57
2019-02-21T21:11:10.781Z,37.87
2019-02-21T21:13:43.910Z,38.20
2019-02-21T21:16:11.487Z,37.67
2019-02-21T21:18:39.956Z,36.47
2019-02-21T21:21:08.100Z,39.10
2019-02-21T21:23:37.034Z,38.33
2019-02-21T21:26:08.978Z,39.40
2019-02-21T21:28:37.380Z,40.63
2019-02-21T21:31:05.615Z,39.40
2019-02-21T21:33:34.184Z,39.50
2019-02-21T21:36:02.423Z,40.87
2019-02-21T21:38:30.908Z,38.67
2019-02-21T21:41:00.045Z,40.73
2019-02-21T21:43:28.498Z,41.77
2019-02-21T21:45:56.732Z,39.47
2019-02-21T21:48:25.055Z,38.40
2019-02-21T21:50:53.651Z,40.23
2019-02-21T21:53:24.907Z,40.83
2019-02-21T21:55:53.156Z,37.17
2019-02-21T21:58:21.629Z,40.47
2019-02-21T22:00:49.662Z,39.80
2019-02-21T22:03:18.229Z,41.50
2019-02-21T22:05:48.605Z,43.03
2019-02-21T22:08:17.197Z,39.53
2019-02-21T22:10:45.725Z,42.23
2019-02-21T22:13:14.318Z,42.13
2019-02-21T22:15:42.710Z,40.67
2019-02-21T22:18:15.340Z,44.00
2019-02-21T22:20:43.531Z,43.37
2019-02-21T22:23:11.639Z,41.67
2019-02-21T22:25:39.918Z,41.00
2019-02-21T22:28:08.076Z,42.10
2019-02-21T22:30:41.908Z,42.60
2019-02-21T22:33:10.737Z,43.20
2019-02-21T22:35:39.416Z,42.30
2019-02-21T22:38:08.090Z,45.40
2019-02-21T22:40:36.401Z,45.30
2019-02-21T22:43:05.072Z,44.20
2019-02-21T22:45:33.758Z,42.33
2019-02-21T22:48:01.777Z,43.10
2019-02-21T22:50:29.930Z,42.70
2019-02-21T22:52:58.357Z,43.73
2019-02-21T22:55:26.521Z,44.70
2019-02-21T22:57:57.569Z,44.97
2019-02-21T23:00:47.604Z,41.57
2019-02-21T23:03:17.561Z,44.30
2019-02-21T23:06:33.847Z,43.97
2019-02-21T23:09:03.286Z,42.33
2019-02-21T23:11:32.073Z,44.47
2019-02-21T23:14:00.426Z,42.93
2019-02-21T23:16:28.822Z,42.07
2019-02-21T23:18:56.950Z,43.57
2019-02-21T23:21:25.144Z,43.13
2019-02-21T23:23:53.283Z,40.33
2019-02-21T23:26:21.502Z,42.47
2019-02-21T23:28:49.545Z,42.77
2019-02-21T23:31:17.745Z,42.77
2019-02-21T23:33:49.613Z,43.10
2019-02-21T23:36:17.747Z,40.90
2019-02-21T23:38:45.965Z,41.10
2019-02-21T23:41:14.162Z,42.27
2019-02-21T23:43:42.553Z,43.47
2019-02-21T23:46:11.392Z,46.27
2019-02-21T23:48:39.546Z,44.67
2019-02-21T23:51:07.719Z,45.83
2019-02-21T23:53:35.733Z,45.93
2019-02-21T23:56:03.850Z,44.20
2019-02-21T23:58:31.993Z,44.50
